Time;durP1;ratioP1;P1;durP2;ratioP2;P2;SDS_P1;SDS_P2;PMS_P1;PMS_P2;Temp;Humidity;BMP_temperature;BMP_pressure;BME280_temperature;BME280_humidity;BME280_pressure;Samples;Min_cycle;Max_cycle;Signal;HPM_P1;HPM_P2
2022/06/20 00:13:19;;;;;;;5.60;2.65;;;;;;;18.62;98.49;99689.95;742106;1154;115496;-79
2022/06/20 00:28:21;;;;;;;6.38;3.10;;;;;;;18.40;98.82;99697.26;741986;1155;115151;-79
2022/06/20 00:43:48;;;;;;;6.30;2.80;;;;;;;18.18;99.23;99688.61;741729;1153;113844;-79
2022/06/20 00:59:14;;;;;;;5.13;2.47;;;;;;;17.81;98.30;99741.09;741505;1153;115026;-79
2022/06/20 01:14:27;;;;;;;5.40;2.55;;;;;;;17.68;99.11;99773.66;741972;1153;113947;-78
2022/06/20 01:29:29;;;;;;;6.28;2.90;;;;;;;17.72;99.28;99766.14;741649;1153;113903;-79
2022/06/20 01:44:37;;;;;;;5.70;2.60;;;;;;;17.49;99.18;99782.32;741475;1154;114061;-79
2022/06/20 01:59:50;;;;;;;6.03;2.60;;;;;;;17.67;99.95;99818.95;741986;1155;115285;-79
2022/06/20 02:14:58;;;;;;;5.35;2.90;;;;;;;17.73;99.99;99834.09;742179;1154;115241;-79
2022/06/20 02:30:04;;;;;;;7.27;3.20;;;;;;;17.85;99.56;99821.12;741671;1155;114962;-81
2022/06/20 02:45:11;;;;;;;4.67;3.67;;;;;;;17.69;99.33;99796.52;739881;1155;114382;-80
2022/06/20 03:00:21;;;;;;;5.80;2.60;;;;;;;17.79;100.00;99788.23;740125;1155;115040;-81
2022/06/20 03:15:24;;;;;;;6.83;2.73;;;;;;;17.93;100.00;99786.50;740272;1153;115035;-81
2022/06/20 03:30:33;;;;;;;5.38;2.70;;;;;;;18.20;99.39;99823.78;740143;1153;114172;-81
2022/06/20 03:45:39;;;;;;;3.90;2.43;;;;;;;18.23;98.29;99813.60;740543;1155;115445;-79
2022/06/20 04:01:00;;;;;;;3.50;2.40;;;;;;;18.41;97.09;99906.02;740322;1155;114266;-80
2022/06/20 04:16:10;;;;;;;6.30;2.60;;;;;;;18.77;96.36;99889.02;740490;1155;114817;-80
2022/06/20 04:31:37;;;;;;;4.58;2.40;;;;;;;18.64;96.49;99873.02;740268;1153;114767;-80
2022/06/20 04:46:51;;;;;;;6.73;3.33;;;;;;;18.91;96.05;99859.85;740099;1153;115548;-80
2022/06/20 05:01:58;;;;;;;7.07;3.07;;;;;;;19.35;94.83;99845.22;740484;1155;114253;-80
2022/06/20 05:17:03;;;;;;;9.65;3.73;;;;;;;19.11;94.41;99764.23;740143;1155;115112;-80
2022/06/20 05:32:11;;;;;;;5.53;3.28;;;;;;;19.49;95.06;99765.42;740183;1153;114794;-80
2022/06/20 05:47:24;;;;;;;5.37;2.77;;;;;;;19.72;94.56;99797.72;740409;1155;114317;-79
2022/06/20 06:02:33;;;;;;;7.60;3.03;;;;;;;20.22;93.09;99850.48;740617;1155;113985;-81
2022/06/20 06:17:52;;;;;;;7.13;2.88;;;;;;;20.60;91.10;99808.92;740421;1154;114885;-81
2022/06/20 06:33:02;;;;;;;21.58;8.75;;;;;;;20.45;89.89;99783.41;740643;1155;114519;-81
2022/06/20 06:48:14;;;;;;;6.20;3.23;;;;;;;20.34;90.05;99616.27;740244;1154;115020;-81
2022/06/20 07:03:21;;;;;;;5.25;3.08;;;;;;;20.21;89.74;99736.20;739924;1153;114716;-80
2022/06/20 07:18:30;;;;;;;5.20;2.98;;;;;;;20.41;90.41;99725.44;741796;1155;115302;-81
2022/06/20 07:33:42;;;;;;;6.05;3.50;;;;;;;20.67;90.86;99727.13;742563;1155;114100;-80
2022/06/20 07:48:48;;;;;;;4.07;2.60;;;;;;;21.20;88.32;99802.45;744060;1153;114728;-80
2022/06/20 08:03:58;;;;;;;6.63;4.38;;;;;;;21.34;87.09;99809.32;743605;1155;115526;-80
2022/06/20 08:19:00;;;;;;;6.67;3.70;;;;;;;21.44;86.46;99808.81;741293;1154;115544;-75
2022/06/20 08:34:24;;;;;;;18.95;5.85;;;;;;;21.26;85.57;99807.73;740006;1155;115415;-76
2022/06/20 08:50:01;;;;;;;6.28;4.10;;;;;;;21.40;86.15;99818.30;739792;1155;114852;-82
2022/06/20 09:05:10;;;;;;;;;;;;;;;21.63;86.92;99824.90;739725;1155;115431;-82
2022/06/20 09:20:37;;;;;;;3.75;2.73;;;;;;;21.38;85.05;99863.87;739980;1155;101144;-81
2022/06/20 09:35:47;;;;;;;6.88;2.40;;;;;;;20.77;86.02;99918.55;740776;1155;114199;-81
2022/06/20 09:51:16;;;;;;;6.30;2.93;;;;;;;19.82;91.53;99887.80;741256;1155;113976;-81
2022/06/20 10:06:36;;;;;;;7.33;3.18;;;;;;;19.63;94.86;99892.89;740024;1154;114419;-80
2022/06/20 10:22:07;;;;;;;6.08;4.73;;;;;;;18.95;97.85;99957.59;740200;1155;114052;-80
2022/06/20 10:37:24;;;;;;;7.95;3.90;;;;;;;18.01;100.00;99972.09;740769;1155;115045;-81
2022/06/20 10:53:10;;;;;;;9.33;4.13;;;;;;;17.68;100.00;99664.11;741109;1152;114434;-82
2022/06/20 11:08:43;;;;;;;5.60;3.25;;;;;;;20.72;100.00;99676.69;739798;1155;115363;-80
2022/06/20 11:24:00;;;;;;;6.73;3.43;;;;;;;20.39;100.00;99696.35;743359;1153;115837;-88
2022/06/20 11:39:38;;;;;;;4.83;2.98;;;;;;;19.52;100.00;99674.56;743127;1154;115703;-90
2022/06/20 11:55:09;;;;;;;5.18;3.38;;;;;;;18.97;100.00;99685.50;742166;1154;114036;-80
2022/06/20 12:10:30;;;;;;;9.48;4.20;;;;;;;19.01;100.00;99740.69;740628;1155;115085;-78
2022/06/20 12:25:43;;;;;;;5.37;3.07;;;;;;;19.20;100.00;99661.14;740513;1155;114022;-79
2022/06/20 12:40:51;;;;;;;9.40;3.80;;;;;;;19.26;100.00;99786.09;740159;1153;114813;-80
2022/06/20 12:55:57;;;;;;;13.67;8.33;;;;;;;19.02;100.00;99600.66;740547;1153;114093;-80
2022/06/20 13:11:18;;;;;;;8.85;6.05;;;;;;;19.10;100.00;99672.20;742307;1154;114352;-85
2022/06/20 13:26:39;;;;;;;7.87;4.33;;;;;;;19.77;100.00;99630.28;742456;1153;114312;-80
2022/06/20 13:41:48;;;;;;;3.83;3.03;;;;;;;20.49;100.00;99609.82;740217;1155;114736;-81
2022/06/20 13:57:22;;;;;;;6.55;3.98;;;;;;;20.32;100.00;99574.91;740880;1153;114869;-81
2022/06/20 14:12:36;;;;;;;6.40;3.78;;;;;;;19.99;100.00;99555.47;740474;1153;115052;-81
2022/06/20 14:27:39;;;;;;;5.33;4.28;;;;;;;19.91;100.00;99577.83;740685;1154;115400;-74
2022/06/20 14:42:53;;;;;;;7.28;4.50;;;;;;;19.79;100.00;99590.98;740092;1155;115465;-76
2022/06/20 14:58:15;;;;;;;6.13;4.17;;;;;;;19.38;100.00;99613.44;739954;1153;115229;-75
2022/06/20 15:13:21;;;;;;;7.93;5.50;;;;;;;19.00;100.00;99603.50;739737;1155;115691;-75
2022/06/20 15:28:29;;;;;;;12.65;6.40;;;;;;;18.52;100.00;99656.84;739939;1155;115038;-75
2022/06/20 15:43:45;;;;;;;2.58;2.13;;;;;;;17.65;100.00;99630.03;740243;1153;115537;-76
2022/06/20 15:59:09;;;;;;;2.83;1.80;;;;;;;17.27;100.00;99637.36;739870;1153;115698;-77
2022/06/20 16:14:29;;;;;;;3.70;2.90;;;;;;;16.92;100.00;99629.41;740057;1155;114699;-76
2022/06/20 16:29:35;;;;;;;2.20;1.63;;;;;;;16.96;100.00;99613.95;741015;1153;114899;-76
2022/06/20 16:44:57;;;;;;;5.80;2.93;;;;;;;16.87;100.00;99599.99;740838;1153;115775;-75
2022/06/20 16:59:59;;;;;;;3.50;2.10;;;;;;;16.73;100.00;99595.61;740876;1155;115447;-76
2022/06/20 17:15:32;;;;;;;4.40;2.70;;;;;;;16.71;100.00;99589.70;740162;1155;115404;-75
2022/06/20 17:30:56;;;;;;;4.50;2.90;;;;;;;16.59;100.00;99602.64;740829;1155;115272;-75
2022/06/20 17:46:34;;;;;;;5.08;3.50;;;;;;;16.37;100.00;99626.47;740587;1153;114437;-76
2022/06/20 18:01:45;;;;;;;4.00;3.55;;;;;;;16.27;100.00;99610.08;740780;1155;114150;-76
2022/06/20 18:16:50;;;;;;;4.40;3.13;;;;;;;16.10;100.00;99572.45;740262;1153;114800;-77
2022/06/20 18:31:58;;;;;;;9.48;5.55;;;;;;;16.18;100.00;99568.88;740219;1154;114134;-76
2022/06/20 18:47:27;;;;;;;6.78;3.40;;;;;;;15.94;100.00;99515.33;739988;1154;115585;-78
2022/06/20 19:03:12;;;;;;;5.58;2.48;;;;;;;15.59;100.00;99513.33;740101;1155;115696;-78
2022/06/20 19:18:31;;;;;;;2.80;2.00;;;;;;;15.63;100.00;99578.04;740273;1155;114148;-75
2022/06/20 19:33:38;;;;;;;11.13;4.13;;;;;;;15.54;100.00;99597.66;740751;1154;115291;-78
2022/06/20 19:48:44;;;;;;;4.53;3.00;;;;;;;15.28;100.00;99617.46;740911;1155;115144;-77
2022/06/20 20:03:47;;;;;;;8.35;4.28;;;;;;;14.84;100.00;99612.14;739773;1155;114782;-77
2022/06/20 20:19:11;;;;;;;6.53;3.35;;;;;;;14.88;100.00;99623.98;740892;1155;114700;-77
2022/06/20 20:34:53;;;;;;;5.18;3.25;;;;;;;14.82;100.00;99630.80;740331;1153;115643;-76
2022/06/20 20:49:55;;;;;;;5.58;2.60;;;;;;;14.74;100.00;99628.20;740602;1153;115554;-75
2022/06/20 21:05:14;;;;;;;8.10;2.75;;;;;;;14.75;100.00;99628.03;741589;1155;114789;-75
2022/06/20 21:20:18;;;;;;;10.50;2.70;;;;;;;14.75;100.00;99617.47;740346;1155;115533;-76
2022/06/20 21:35:26;;;;;;;5.33;2.30;;;;;;;14.52;100.00;99622.76;740147;1155;115746;-76
2022/06/20 21:50:43;;;;;;;3.75;1.88;;;;;;;14.51;100.00;99625.58;740321;1155;115515;-76
2022/06/20 22:05:47;;;;;;;13.53;4.77;;;;;;;14.39;100.00;99625.98;739984;1155;114750;-76
2022/06/20 22:21:08;;;;;;;4.13;2.45;;;;;;;14.13;100.00;99618.41;739988;1155;115451;-76
2022/06/20 22:36:12;;;;;;;6.83;3.40;;;;;;;14.26;100.00;99617.84;740071;1153;114528;-76
2022/06/20 22:51:16;;;;;;;9.43;2.40;;;;;;;14.02;100.00;99613.55;740049;1155;115341;-76
2022/06/20 23:06:19;;;;;;;7.35;4.83;;;;;;;14.15;100.00;99598.77;739901;1153;114699;-77
2022/06/20 23:21:22;;;;;;;5.50;3.10;;;;;;;13.98;100.00;99578.79;739901;1153;114159;-76
2022/06/20 23:36:25;;;;;;;5.60;2.10;;;;;;;14.13;100.00;99545.39;739875;1154;115648;-75
2022/06/20 23:51:27;;;;;;;3.43;2.20;;;;;;;14.23;100.00;99533.78;740134;1155;115180;-77
